createdAt,value
2018-06-11T00:06:42.917Z,26.7
2018-06-11T00:16:42.427Z,26.7
2018-06-11T00:26:41.265Z,26.8
2018-06-11T00:36:41.058Z,26.8
2018-06-11T00:46:39.802Z,26.8
2018-06-11T00:56:39.281Z,26.8
2018-06-11T01:06:38.160Z,26.8
2018-06-11T01:16:37.465Z,26.8
2018-06-11T01:26:36.666Z,26.8
2018-06-11T01:36:35.924Z,26.8
2018-06-11T01:46:35.519Z,26.8
2018-06-11T01:56:34.769Z,26.8
2018-06-11T02:06:34.018Z,26.8
2018-06-11T02:16:33.392Z,26.8
2018-06-11T02:26:32.027Z,26.8
2018-06-11T02:36:31.241Z,26.8
2018-06-11T02:46:30.479Z,26.8
2018-06-11T02:56:29.993Z,26.8
2018-06-11T03:06:29.121Z,26.7
2018-06-11T03:16:28.504Z,26.8
2018-06-11T03:26:27.411Z,26.8
2018-06-11T03:36:27.000Z,26.8
2018-06-11T03:46:25.857Z,26.8
2018-06-11T03:56:25.732Z,26.8
2018-06-11T04:06:24.911Z,26.8
2018-06-11T04:16:23.678Z,26.7
2018-06-11T04:26:22.934Z,26.6
2018-06-11T04:36:22.012Z,26.6
2018-06-11T04:46:21.679Z,26.6
2018-06-11T04:56:20.509Z,26.6
2018-06-11T05:06:20.000Z,26.6
2018-06-11T05:16:18.973Z,26.6
2018-06-11T05:26:18.165Z,26.6
2018-06-11T05:36:17.496Z,26.6
2018-06-11T05:46:16.866Z,26.6
2018-06-11T05:56:16.198Z,26.6
2018-06-11T06:06:15.110Z,26.6
2018-06-11T06:16:14.337Z,26.6
2018-06-11T06:26:14.183Z,26.7
2018-06-11T06:36:12.779Z,26.7
2018-06-11T06:46:12.014Z,26.6
2018-06-11T06:56:11.280Z,26.7
2018-06-11T07:06:10.486Z,26.7
2018-06-11T07:16:10.043Z,26.7
2018-06-11T07:26:08.939Z,26.8
2018-06-11T07:36:08.228Z,26.7
2018-06-11T07:46:07.469Z,26.8
2018-06-11T07:56:06.690Z,26.8
2018-06-11T08:06:05.860Z,26.8
2018-06-11T08:16:05.094Z,26.8
2018-06-11T08:26:04.702Z,26.8
2018-06-11T08:36:03.883Z,26.8
2018-06-11T08:46:03.100Z,26.8
2018-06-11T08:56:02.092Z,26.8
2018-06-11T09:06:01.558Z,26.8
2018-06-11T09:16:00.507Z,26.8
2018-06-11T09:25:59.767Z,26.8
2018-06-11T09:35:58.949Z,26.8
2018-06-11T09:45:58.511Z,26.9
2018-06-11T09:55:57.458Z,26.9
2018-06-11T10:05:56.647Z,26.9
2018-06-11T10:15:55.897Z,26.9
2018-06-11T10:25:55.470Z,26.9
2018-06-11T10:35:54.421Z,26.9
2018-06-11T10:45:53.556Z,26.9
2018-06-11T10:55:52.818Z,26.9
2018-06-11T11:05:52.027Z,27
2018-06-11T11:15:51.321Z,27
2018-06-11T11:25:51.105Z,27.1
2018-06-11T11:35:49.849Z,27.1
2018-06-11T11:45:49.016Z,27.1
2018-06-11T11:55:48.220Z,27.1
2018-06-11T12:05:47.443Z,27.1
2018-06-11T12:15:46.697Z,27.1
2018-06-11T12:25:45.910Z,27.1
2018-06-11T12:35:45.121Z,27.1
2018-06-11T12:45:44.359Z,27.1
2018-06-11T12:55:43.591Z,27.1
2018-06-11T13:05:42.842Z,27.2
2018-06-11T13:15:42.355Z,27.2
2018-06-11T13:25:41.306Z,27.2
2018-06-11T13:35:40.888Z,27.2
2018-06-11T13:45:40.053Z,27.3
2018-06-11T13:55:39.616Z,27.3
2018-06-11T14:05:38.608Z,27.3
2018-06-11T14:15:37.442Z,27.3
2018-06-11T14:25:37.020Z,27.3
2018-06-11T14:35:35.904Z,27.3
2018-06-11T14:45:35.133Z,27.3
2018-06-11T14:55:34.399Z,27.3
2018-06-11T15:05:33.612Z,27.4
2018-06-11T15:15:32.853Z,27.4
2018-06-11T15:25:32.365Z,27.4
2018-06-11T15:35:31.333Z,27.4
2018-06-11T15:45:30.803Z,27.4
2018-06-11T15:55:30.045Z,27.3
2018-06-11T16:05:28.991Z,27.2
2018-06-11T16:15:28.251Z,27.2
2018-06-11T16:25:27.748Z,27.1
2018-06-11T16:35:26.719Z,27.1
2018-06-11T16:45:25.923Z,26.9
2018-06-11T16:55:25.219Z,26.8
2018-06-11T17:05:24.988Z,26.7
2018-06-11T17:15:23.619Z,26.7
2018-06-11T17:25:22.891Z,26.6
2018-06-11T17:35:22.423Z,26.4
2018-06-11T17:45:21.629Z,26.4
2018-06-11T17:55:20.603Z,26.4
2018-06-11T18:05:20.126Z,26.3
2018-06-11T18:15:19.015Z,26.3
2018-06-11T18:25:18.251Z,26.3
2018-06-11T18:35:17.509Z,26.3
2018-06-11T18:45:17.173Z,26.3
2018-06-11T18:55:16.525Z,26.3
2018-06-11T19:05:15.534Z,26.3
2018-06-11T19:15:14.567Z,26.3
2018-06-11T19:25:13.777Z,26.5
2018-06-11T19:35:12.980Z,26.7
2018-06-11T19:45:12.115Z,26.8
2018-06-11T19:55:11.355Z,26.8
2018-06-11T20:05:10.696Z,26.9
2018-06-11T20:15:09.862Z,26.9
2018-06-11T20:25:09.361Z,26.9
2018-06-11T20:35:08.318Z,26.9
2018-06-11T20:45:07.810Z,26.9
2018-06-11T20:55:06.751Z,27
2018-06-11T21:05:06.065Z,27
2018-06-11T21:15:05.565Z,27.1
2018-06-11T21:25:04.452Z,27
2018-06-11T21:35:03.993Z,27.1
2018-06-11T21:45:03.253Z,27.1
2018-06-11T21:55:02.223Z,27.1
2018-06-11T22:05:01.453Z,27.1
2018-06-11T22:15:01.392Z,27.1
2018-06-11T22:25:00.561Z,27.1
2018-06-11T22:34:59.193Z,27.2
2018-06-11T22:44:58.475Z,27.2
2018-06-11T22:54:57.541Z,27.2
2018-06-11T23:04:56.837Z,27.2
2018-06-11T23:14:56.146Z,27.2
2018-06-11T23:24:55.826Z,27.2
2018-06-11T23:34:54.579Z,27.2
2018-06-11T23:44:53.785Z,27.2
2018-06-11T23:54:53.237Z,27.2
